Portada
METAR-TAF:

METAR-TAF

Aeroports :

Aeroport de Palma - Son Sant Joan

Palma, Espanya

latitud: 39-33N, longitud: 002-44E, altitud: 4 m

Observació

L'informe es va fer fa 19 minuts, a les 19:30 UTC
Vent 6 kt del Oest, variant entre Sud/Sud-Oest i Nord-Oest
Temperatura 27°C
Humitat 70%
Pressió 1014 hPa
Visibilitat 10 km o més
sense núvols per sota de 1500 mi sense presència de cumulonimbus.

METAR: LEPA 181930Z 26006KT 200V320 CAVOK 27/21 Q1014 NOSIG

Hora: 21:49 (19:49 UTC)

Pronòstic

L'informe es va fer fa 1 hora i 49 minuts, a les 18:00 UTC
Pronòstic vàlid del 18 a les 18 UTC al 19 a les 18 UTC
Vent 10 kt del Oest/Sud-Oest
Visibilitat 10 km o més
Escasses núvols a una alçada de 2000 ft
Evolucionant progressivament
l' 18 a les 18 UTC al 18 a les 20 UTC
Vent 3 kt amb direcció variable
Evolucionant progressivament
l' 19 a les 10 UTC al 19 a les 12 UTC
Vent 12 kt del Sud-Oest

TAF: LEPA 181800Z 1818/1918 25010KT 9999 FEW020 TX33/1912Z TN19/1905Z BECMG 1818/1820 VRB03KT BECMG 1910/1912 22012KT

Observacions i pronòstics meteorològics de més de 4000 aeroports (METAR i TAF).

Les estacions disponibles són els punts grocs i vermells al mapa.

Posi el ratolí al punt desitjat per veure el nom de l'estació.

Feu clic per veure les observacions i els pronòstics meteorològics.

Per canviar el mapa: feu clic els botons verds amb una creu de color negre per apropar; al botó verd amb un guió per allunyar la imatge; o en les fletxes verdes per a mapes adjacents.


METAR-TAF: